sensor_id;sensor_type;location;lat;lon;timestamp;pressure;altitude;pressure_sealevel;temperature;humidity
54924;BME280;40825;52.270;20.984;2023-01-26T00:01:24;101480.33;;;-0.38;89.87
54924;BME280;40825;52.270;20.984;2023-01-26T00:03:50;101480.12;;;-0.38;89.94
54924;BME280;40825;52.270;20.984;2023-01-26T00:06:17;101469.89;;;-0.37;90.02
54924;BME280;40825;52.270;20.984;2023-01-26T00:08:46;101470.86;;;-0.38;89.71
54924;BME280;40825;52.270;20.984;2023-01-26T00:11:14;101475.27;;;-0.39;89.97
54924;BME280;40825;52.270;20.984;2023-01-26T00:13:41;101475.31;;;-0.37;90.09
54924;BME280;40825;52.270;20.984;2023-01-26T00:16:09;101473.85;;;-0.32;90.26
54924;BME280;40825;52.270;20.984;2023-01-26T00:18:36;101468.39;;;-0.29;90.25
54924;BME280;40825;52.270;20.984;2023-01-26T00:21:02;101463.52;;;-0.26;89.91
54924;BME280;40825;52.270;20.984;2023-01-26T00:23:30;101466.22;;;-0.27;89.80
54924;BME280;40825;52.270;20.984;2023-01-26T00:25:56;101461.68;;;-0.25;90.21
54924;BME280;40825;52.270;20.984;2023-01-26T00:28:22;101458.58;;;-0.20;90.22
54924;BME280;40825;52.270;20.984;2023-01-26T00:30:47;101453.19;;;-0.15;90.22
54924;BME280;40825;52.270;20.984;2023-01-26T00:33:14;101456.05;;;-0.13;89.75
54924;BME280;40825;52.270;20.984;2023-01-26T00:35:39;101460.35;;;-0.15;89.68
54924;BME280;40825;52.270;20.984;2023-01-26T00:38:11;101458.63;;;-0.15;89.89
54924;BME280;40825;52.270;20.984;2023-01-26T00:40:38;101456.95;;;-0.16;89.73
54924;BME280;40825;52.270;20.984;2023-01-26T00:43:03;101453.45;;;-0.16;89.82
54924;BME280;40825;52.270;20.984;2023-01-26T00:45:29;101453.64;;;-0.17;89.53
54924;BME280;40825;52.270;20.984;2023-01-26T00:47:54;101454.77;;;-0.18;89.77
54924;BME280;40825;52.270;20.984;2023-01-26T00:50:20;101451.65;;;-0.15;89.83
54924;BME280;40825;52.270;20.984;2023-01-26T00:52:45;101447.98;;;-0.16;89.68
54924;BME280;40825;52.270;20.984;2023-01-26T00:55:11;101443.42;;;-0.15;89.66
54924;BME280;40825;52.270;20.984;2023-01-26T00:57:36;101438.16;;;-0.15;89.57
54924;BME280;40825;52.270;20.984;2023-01-26T01:00:03;101436.61;;;-0.16;89.42
54924;BME280;40825;52.270;20.984;2023-01-26T01:02:30;101439.21;;;-0.15;89.68
54924;BME280;40825;52.270;20.984;2023-01-26T01:04:56;101443.33;;;-0.14;89.75
54924;BME280;40825;52.270;20.984;2023-01-26T01:07:22;101441.55;;;-0.10;90.02
54924;BME280;40825;52.270;20.984;2023-01-26T01:09:48;101443.30;;;-0.08;89.71
54924;BME280;40825;52.270;20.984;2023-01-26T01:12:13;101440.52;;;-0.08;89.53
54924;BME280;40825;52.270;20.984;2023-01-26T01:14:39;101445.17;;;-0.07;89.70
54924;BME280;40825;52.270;20.984;2023-01-26T01:17:04;101442.38;;;-0.07;89.61
54924;BME280;40825;52.270;20.984;2023-01-26T01:19:30;101440.41;;;-0.06;89.49
54924;BME280;40825;52.270;20.984;2023-01-26T01:21:55;101436.49;;;-0.08;89.19
54924;BME280;40825;52.270;20.984;2023-01-26T01:24:21;101429.80;;;-0.10;89.28
54924;BME280;40825;52.270;20.984;2023-01-26T01:26:47;101419.51;;;-0.10;89.43
54924;BME280;40825;52.270;20.984;2023-01-26T01:29:13;101415.89;;;-0.11;89.22
54924;BME280;40825;52.270;20.984;2023-01-26T01:31:39;101410.37;;;-0.13;89.39
54924;BME280;40825;52.270;20.984;2023-01-26T01:34:05;101407.91;;;-0.12;89.53
54924;BME280;40825;52.270;20.984;2023-01-26T01:36:31;101405.86;;;-0.14;89.40
54924;BME280;40825;52.270;20.984;2023-01-26T01:38:57;101400.81;;;-0.14;89.71
54924;BME280;40825;52.270;20.984;2023-01-26T01:41:22;101396.18;;;-0.12;89.62
54924;BME280;40825;52.270;20.984;2023-01-26T01:43:49;101389.40;;;-0.13;89.45
54924;BME280;40825;52.270;20.984;2023-01-26T01:46:33;101382.41;;;-0.13;89.59
54924;BME280;40825;52.270;20.984;2023-01-26T01:49:07;101378.16;;;-0.15;89.43
54924;BME280;40825;52.270;20.984;2023-01-26T01:52:02;101378.11;;;-0.18;89.45
54924;BME280;40825;52.270;20.984;2023-01-26T01:54:57;101369.64;;;-0.19;89.63
54924;BME280;40825;52.270;20.984;2023-01-26T01:57:31;101368.11;;;-0.20;89.77
54924;BME280;40825;52.270;20.984;2023-01-26T02:00:11;101368.77;;;-0.19;89.86
54924;BME280;40825;52.270;20.984;2023-01-26T02:02:37;101363.57;;;-0.17;89.90
54924;BME280;40825;52.270;20.984;2023-01-26T02:05:12;101362.76;;;-0.15;89.70
54924;BME280;40825;52.270;20.984;2023-01-26T02:07:41;101361.22;;;-0.16;89.68
54924;BME280;40825;52.270;20.984;2023-01-26T02:10:07;101359.05;;;-0.18;89.69
54924;BME280;40825;52.270;20.984;2023-01-26T02:12:44;101362.84;;;-0.17;89.79
54924;BME280;40825;52.270;20.984;2023-01-26T02:15:10;101362.12;;;-0.16;89.84
54924;BME280;40825;52.270;20.984;2023-01-26T02:17:36;101363.00;;;-0.16;89.78
54924;BME280;40825;52.270;20.984;2023-01-26T02:28:24;101348.63;;;-0.16;89.88
54924;BME280;40825;52.270;20.984;2023-01-26T02:30:52;101346.84;;;-0.18;89.89
54924;BME280;40825;52.270;20.984;2023-01-26T02:33:27;101345.02;;;-0.20;90.02
54924;BME280;40825;52.270;20.984;2023-01-26T02:35:53;101340.80;;;-0.19;90.14
54924;BME280;40825;52.270;20.984;2023-01-26T02:38:21;101340.13;;;-0.20;90.12
54924;BME280;40825;52.270;20.984;2023-01-26T02:40:55;101342.06;;;-0.17;90.31
54924;BME280;40825;52.270;20.984;2023-01-26T02:43:24;101342.73;;;-0.17;90.26
54924;BME280;40825;52.270;20.984;2023-01-26T02:45:50;101340.40;;;-0.19;90.29
54924;BME280;40825;52.270;20.984;2023-01-26T02:48:16;101341.27;;;-0.19;90.34
54924;BME280;40825;52.270;20.984;2023-01-26T02:51:02;101340.66;;;-0.17;90.45
54924;BME280;40825;52.270;20.984;2023-01-26T02:53:28;101332.67;;;-0.18;90.48
54924;BME280;40825;52.270;20.984;2023-01-26T02:55:53;101330.34;;;-0.17;90.51
54924;BME280;40825;52.270;20.984;2023-01-26T02:58:19;101326.46;;;-0.17;90.49
54924;BME280;40825;52.270;20.984;2023-01-26T03:00:44;101322.60;;;-0.17;90.50
54924;BME280;40825;52.270;20.984;2023-01-26T03:03:15;101311.11;;;-0.18;90.65
54924;BME280;40825;52.270;20.984;2023-01-26T03:05:41;101307.96;;;-0.18;90.84
54924;BME280;40825;52.270;20.984;2023-01-26T03:08:07;101300.96;;;-0.17;90.87
54924;BME280;40825;52.270;20.984;2023-01-26T03:10:34;101301.95;;;-0.20;90.64
54924;BME280;40825;52.270;20.984;2023-01-26T03:12:59;101302.73;;;-0.20;90.79
54924;BME280;40825;52.270;20.984;2023-01-26T03:15:25;101303.80;;;-0.21;90.86
54924;BME280;40825;52.270;20.984;2023-01-26T03:18:14;101300.35;;;-0.22;91.07
54924;BME280;40825;52.270;20.984;2023-01-26T03:21:05;101297.68;;;-0.21;91.09
54924;BME280;40825;52.270;20.984;2023-01-26T03:23:50;101288.79;;;-0.21;91.09
54924;BME280;40825;52.270;20.984;2023-01-26T03:26:35;101289.86;;;-0.22;91.14
54924;BME280;40825;52.270;20.984;2023-01-26T03:29:19;101285.77;;;-0.21;91.30
54924;BME280;40825;52.270;20.984;2023-01-26T03:31:45;101276.30;;;-0.20;91.27
54924;BME280;40825;52.270;20.984;2023-01-26T03:34:11;101276.27;;;-0.20;91.20
54924;BME280;40825;52.270;20.984;2023-01-26T03:36:36;101276.50;;;-0.18;91.14
54924;BME280;40825;52.270;20.984;2023-01-26T03:39:05;101274.90;;;-0.18;91.19
54924;BME280;40825;52.270;20.984;2023-01-26T03:41:30;101272.55;;;-0.16;91.17
54924;BME280;40825;52.270;20.984;2023-01-26T03:44:14;101271.52;;;-0.14;91.13
54924;BME280;40825;52.270;20.984;2023-01-26T03:46:59;101268.30;;;-0.13;91.07
54924;BME280;40825;52.270;20.984;2023-01-26T03:49:43;101270.39;;;-0.13;91.13
54924;BME280;40825;52.270;20.984;2023-01-26T03:52:27;101264.54;;;-0.11;91.12
54924;BME280;40825;52.270;20.984;2023-01-26T03:55:13;101265.21;;;-0.11;91.07
54924;BME280;40825;52.270;20.984;2023-01-26T03:57:58;101260.85;;;-0.11;91.01
54924;BME280;40825;52.270;20.984;2023-01-26T04:00:23;101261.48;;;-0.10;91.08
54924;BME280;40825;52.270;20.984;2023-01-26T04:02:48;101259.70;;;-0.10;91.02
54924;BME280;40825;52.270;20.984;2023-01-26T04:05:33;101257.87;;;-0.08;91.04
54924;BME280;40825;52.270;20.984;2023-01-26T04:08:17;101258.54;;;-0.05;91.05
54924;BME280;40825;52.270;20.984;2023-01-26T04:10:53;101255.31;;;-0.04;90.97
54924;BME280;40825;52.270;20.984;2023-01-26T04:13:20;101253.58;;;-0.04;90.92
54924;BME280;40825;52.270;20.984;2023-01-26T04:16:06;101248.71;;;-0.05;90.99
54924;BME280;40825;52.270;20.984;2023-01-26T04:18:51;101247.80;;;-0.02;91.01
54924;BME280;40825;52.270;20.984;2023-01-26T04:21:36;101245.77;;;0.00;90.89
54924;BME280;40825;52.270;20.984;2023-01-26T04:24:04;101245.92;;;0.01;90.82
54924;BME280;40825;52.270;20.984;2023-01-26T04:26:35;101250.10;;;0.01;90.84
54924;BME280;40825;52.270;20.984;2023-01-26T04:29:08;101250.29;;;0.03;90.78
54924;BME280;40825;52.270;20.984;2023-01-26T04:31:35;101247.30;;;0.04;90.67
54924;BME280;40825;52.270;20.984;2023-01-26T04:34:02;101251.79;;;0.05;90.83
54924;BME280;40825;52.270;20.984;2023-01-26T04:36:28;101253.71;;;0.10;91.06
54924;BME280;40825;52.270;20.984;2023-01-26T04:38:54;101253.29;;;0.11;90.34
54924;BME280;40825;52.270;20.984;2023-01-26T04:41:19;101252.17;;;0.09;90.25
54924;BME280;40825;52.270;20.984;2023-01-26T04:43:45;101247.68;;;0.08;90.35
54924;BME280;40825;52.270;20.984;2023-01-26T04:46:12;101253.09;;;0.06;90.19
54924;BME280;40825;52.270;20.984;2023-01-26T04:48:38;101248.27;;;0.05;90.35
54924;BME280;40825;52.270;20.984;2023-01-26T04:51:15;101246.64;;;0.06;90.31
54924;BME280;40825;52.270;20.984;2023-01-26T04:53:41;101249.11;;;0.05;90.28
54924;BME280;40825;52.270;20.984;2023-01-26T04:56:07;101251.91;;;0.06;90.46
54924;BME280;40825;52.270;20.984;2023-01-26T04:58:37;101247.60;;;0.07;90.26
54924;BME280;40825;52.270;20.984;2023-01-26T05:01:02;101248.64;;;0.07;90.25
54924;BME280;40825;52.270;20.984;2023-01-26T05:03:28;101244.59;;;0.07;90.37
54924;BME280;40825;52.270;20.984;2023-01-26T05:05:54;101242.23;;;0.09;90.40
54924;BME280;40825;52.270;20.984;2023-01-26T05:08:20;101234.11;;;0.10;90.43
54924;BME280;40825;52.270;20.984;2023-01-26T05:10:46;101231.66;;;0.10;90.42
54924;BME280;40825;52.270;20.984;2023-01-26T05:13:12;101238.67;;;0.10;90.17
54924;BME280;40825;52.270;20.984;2023-01-26T05:15:39;101237.69;;;0.09;90.14
54924;BME280;40825;52.270;20.984;2023-01-26T05:18:05;101238.13;;;0.10;90.12
54924;BME280;40825;52.270;20.984;2023-01-26T05:20:31;101233.55;;;0.10;90.29
54924;BME280;40825;52.270;20.984;2023-01-26T05:22:57;101232.73;;;0.12;90.37
54924;BME280;40825;52.270;20.984;2023-01-26T05:25:23;101230.52;;;0.14;90.45
54924;BME280;40825;52.270;20.984;2023-01-26T05:27:48;101225.88;;;0.16;90.51
54924;BME280;40825;52.270;20.984;2023-01-26T05:30:14;101221.80;;;0.16;90.42
54924;BME280;40825;52.270;20.984;2023-01-26T05:32:40;101221.05;;;0.17;90.35
54924;BME280;40825;52.270;20.984;2023-01-26T05:35:06;101220.90;;;0.16;89.96
54924;BME280;40825;52.270;20.984;2023-01-26T05:37:32;101230.59;;;0.16;89.90
54924;BME280;40825;52.270;20.984;2023-01-26T05:39:58;101233.91;;;0.16;90.00
54924;BME280;40825;52.270;20.984;2023-01-26T05:42:25;101234.24;;;0.16;90.21
54924;BME280;40825;52.270;20.984;2023-01-26T05:44:51;101229.64;;;0.17;90.05
54924;BME280;40825;52.270;20.984;2023-01-26T05:47:17;101225.73;;;0.17;90.26
54924;BME280;40825;52.270;20.984;2023-01-26T05:49:43;101223.95;;;0.20;90.39
54924;BME280;40825;52.270;20.984;2023-01-26T05:52:12;101223.63;;;0.23;90.27
54924;BME280;40825;52.270;20.984;2023-01-26T05:54:38;101231.21;;;0.24;90.30
54924;BME280;40825;52.270;20.984;2023-01-26T05:57:04;101232.77;;;0.27;90.51
54924;BME280;40825;52.270;20.984;2023-01-26T05:59:29;101237.12;;;0.31;90.20
54924;BME280;40825;52.270;20.984;2023-01-26T06:01:56;101241.06;;;0.32;90.38
54924;BME280;40825;52.270;20.984;2023-01-26T06:04:22;101239.64;;;0.32;90.04
54924;BME280;40825;52.270;20.984;2023-01-26T06:06:51;101239.83;;;0.32;89.93
54924;BME280;40825;52.270;20.984;2023-01-26T06:09:17;101235.86;;;0.34;90.41
54924;BME280;40825;52.270;20.984;2023-01-26T06:11:43;101231.74;;;0.35;90.33
54924;BME280;40825;52.270;20.984;2023-01-26T06:14:08;101233.06;;;0.36;90.23
54924;BME280;40825;52.270;20.984;2023-01-26T06:16:34;101230.85;;;0.38;90.49
54924;BME280;40825;52.270;20.984;2023-01-26T06:18:59;101233.23;;;0.41;90.21
54924;BME280;40825;52.270;20.984;2023-01-26T06:21:25;101230.95;;;0.42;90.13
54924;BME280;40825;52.270;20.984;2023-01-26T06:23:50;101225.30;;;0.43;89.81
54924;BME280;40825;52.270;20.984;2023-01-26T06:26:16;101225.39;;;0.41;89.48
54924;BME280;40825;52.270;20.984;2023-01-26T06:28:41;101225.45;;;0.40;89.78
54924;BME280;40825;52.270;20.984;2023-01-26T06:31:07;101226.40;;;0.39;89.60
54924;BME280;40825;52.270;20.984;2023-01-26T06:33:36;101224.40;;;0.38;89.22
54924;BME280;40825;52.270;20.984;2023-01-26T06:36:07;101224.02;;;0.38;89.17
54924;BME280;40825;52.270;20.984;2023-01-26T06:38:34;101224.40;;;0.37;88.64
54924;BME280;40825;52.270;20.984;2023-01-26T06:41:01;101225.59;;;0.38;88.39
54924;BME280;40825;52.270;20.984;2023-01-26T06:43:28;101228.20;;;0.38;88.30
54924;BME280;40825;52.270;20.984;2023-01-26T06:45:55;101224.86;;;0.41;89.08
54924;BME280;40825;52.270;20.984;2023-01-26T06:48:23;101220.44;;;0.45;88.98
54924;BME280;40825;52.270;20.984;2023-01-26T06:50:49;101219.63;;;0.46;88.79
54924;BME280;40825;52.270;20.984;2023-01-26T06:53:36;101218.24;;;0.46;88.86
54924;BME280;40825;52.270;20.984;2023-01-26T06:56:02;101214.09;;;0.45;88.93
54924;BME280;40825;52.270;20.984;2023-01-26T06:58:28;101210.64;;;0.47;89.11
54924;BME280;40825;52.270;20.984;2023-01-26T07:00:54;101212.74;;;0.47;88.74
54924;BME280;40825;52.270;20.984;2023-01-26T07:03:20;101213.84;;;0.46;89.01
54924;BME280;40825;52.270;20.984;2023-01-26T07:05:46;101217.14;;;0.47;89.10
54924;BME280;40825;52.270;20.984;2023-01-26T07:08:12;101214.08;;;0.46;88.68
54924;BME280;40825;52.270;20.984;2023-01-26T07:10:37;101216.02;;;0.45;88.91
54924;BME280;40825;52.270;20.984;2023-01-26T07:13:04;101216.50;;;0.46;88.64
54924;BME280;40825;52.270;20.984;2023-01-26T07:15:30;101220.49;;;0.44;88.12
54924;BME280;40825;52.270;20.984;2023-01-26T07:17:57;101213.83;;;0.41;87.92
54924;BME280;40825;52.270;20.984;2023-01-26T07:20:23;101211.58;;;0.41;88.07
54924;BME280;40825;52.270;20.984;2023-01-26T07:22:49;101209.16;;;0.40;88.15
54924;BME280;40825;52.270;20.984;2023-01-26T07:25:15;101207.23;;;0.40;87.97
54924;BME280;40825;52.270;20.984;2023-01-26T07:27:41;101205.02;;;0.42;88.35
54924;BME280;40825;52.270;20.984;2023-01-26T07:30:07;101204.52;;;0.44;88.28
54924;BME280;40825;52.270;20.984;2023-01-26T07:32:33;101202.45;;;0.46;88.17
54924;BME280;40825;52.270;20.984;2023-01-26T07:34:59;101200.36;;;0.49;88.09
54924;BME280;40825;52.270;20.984;2023-01-26T07:37:28;101204.91;;;0.51;88.16
54924;BME280;40825;52.270;20.984;2023-01-26T07:39:53;101199.12;;;0.54;88.65
54924;BME280;40825;52.270;20.984;2023-01-26T07:42:19;101197.27;;;0.53;87.68
54924;BME280;40825;52.270;20.984;2023-01-26T07:44:44;101200.11;;;0.50;87.75
54924;BME280;40825;52.270;20.984;2023-01-26T07:47:10;101198.80;;;0.51;88.21
54924;BME280;40825;52.270;20.984;2023-01-26T07:49:35;101200.38;;;0.51;87.93
54924;BME280;40825;52.270;20.984;2023-01-26T07:52:01;101199.60;;;0.49;87.79
54924;BME280;40825;52.270;20.984;2023-01-26T07:54:26;101195.59;;;0.47;87.81
54924;BME280;40825;52.270;20.984;2023-01-26T07:56:52;101201.47;;;0.45;87.79
54924;BME280;40825;52.270;20.984;2023-01-26T07:59:19;101199.98;;;0.44;87.91
54924;BME280;40825;52.270;20.984;2023-01-26T08:01:45;101197.97;;;0.45;88.29
54924;BME280;40825;52.270;20.984;2023-01-26T08:04:10;101202.34;;;0.48;88.09
54924;BME280;40825;52.270;20.984;2023-01-26T08:06:36;101201.95;;;0.49;87.66
54924;BME280;40825;52.270;20.984;2023-01-26T08:09:02;101202.75;;;0.47;87.57
54924;BME280;40825;52.270;20.984;2023-01-26T08:11:28;101197.06;;;0.48;87.58
54924;BME280;40825;52.270;20.984;2023-01-26T08:13:54;101196.92;;;0.51;87.43
54924;BME280;40825;52.270;20.984;2023-01-26T08:16:20;101199.10;;;0.49;87.31
54924;BME280;40825;52.270;20.984;2023-01-26T08:18:46;101199.50;;;0.48;87.14
54924;BME280;40825;52.270;20.984;2023-01-26T08:21:14;101196.43;;;0.52;87.39
54924;BME280;40825;52.270;20.984;2023-01-26T08:23:40;101196.46;;;0.60;88.10
54924;BME280;40825;52.270;20.984;2023-01-26T08:26:10;101192.79;;;0.67;87.40
54924;BME280;40825;52.270;20.984;2023-01-26T08:28:37;101192.48;;;0.69;86.61
54924;BME280;40825;52.270;20.984;2023-01-26T08:31:05;101185.97;;;0.70;86.20
54924;BME280;40825;52.270;20.984;2023-01-26T08:33:32;101180.19;;;0.73;86.54
54924;BME280;40825;52.270;20.984;2023-01-26T08:36:06;101180.79;;;0.76;86.35
54924;BME280;40825;52.270;20.984;2023-01-26T08:38:33;101183.42;;;0.79;86.01
54924;BME280;40825;52.270;20.984;2023-01-26T08:40:59;101184.90;;;0.83;85.92
54924;BME280;40825;52.270;20.984;2023-01-26T08:43:26;101182.16;;;0.85;84.67
54924;BME280;40825;52.270;20.984;2023-01-26T08:45:52;101187.93;;;0.82;83.93
54924;BME280;40825;52.270;20.984;2023-01-26T08:48:18;101188.07;;;0.80;83.33
54924;BME280;40825;52.270;20.984;2023-01-26T08:50:44;101190.06;;;0.77;83.19
54924;BME280;40825;52.270;20.984;2023-01-26T08:53:09;101190.84;;;0.75;83.47
54924;BME280;40825;52.270;20.984;2023-01-26T08:55:35;101193.96;;;0.75;83.63
54924;BME280;40825;52.270;20.984;2023-01-26T08:58:00;101197.71;;;0.80;83.77
54924;BME280;40825;52.270;20.984;2023-01-26T09:00:26;101200.78;;;0.78;82.89
54924;BME280;40825;52.270;20.984;2023-01-26T09:03:00;101209.45;;;0.74;82.13
54924;BME280;40825;52.270;20.984;2023-01-26T09:05:30;101211.23;;;0.72;82.10
54924;BME280;40825;52.270;20.984;2023-01-26T09:07:56;101211.07;;;0.69;82.14
54924;BME280;40825;52.270;20.984;2023-01-26T09:10:21;101211.95;;;0.69;82.32
54924;BME280;40825;52.270;20.984;2023-01-26T09:12:47;101214.60;;;0.66;82.23
54924;BME280;40825;52.270;20.984;2023-01-26T09:15:12;101218.08;;;0.64;81.77
54924;BME280;40825;52.270;20.984;2023-01-26T09:17:38;101220.23;;;0.63;82.27
54924;BME280;40825;52.270;20.984;2023-01-26T09:20:04;101217.00;;;0.64;81.90
54924;BME280;40825;52.270;20.984;2023-01-26T09:22:30;101215.90;;;0.65;81.92
54924;BME280;40825;52.270;20.984;2023-01-26T09:24:56;101215.79;;;0.69;82.54
54924;BME280;40825;52.270;20.984;2023-01-26T09:27:22;101217.48;;;0.73;82.40
54924;BME280;40825;52.270;20.984;2023-01-26T09:29:47;101214.52;;;0.73;81.76
54924;BME280;40825;52.270;20.984;2023-01-26T09:32:13;101216.24;;;0.70;81.23
54924;BME280;40825;52.270;20.984;2023-01-26T09:34:38;101211.41;;;0.69;81.17
54924;BME280;40825;52.270;20.984;2023-01-26T09:37:06;101209.11;;;0.67;81.12
54924;BME280;40825;52.270;20.984;2023-01-26T09:39:32;101206.32;;;0.64;81.11
54924;BME280;40825;52.270;20.984;2023-01-26T09:42:09;101204.22;;;0.61;80.19
54924;BME280;40825;52.270;20.984;2023-01-26T09:44:50;101201.89;;;0.63;80.47
54924;BME280;40825;52.270;20.984;2023-01-26T09:50:17;101205.78;;;0.57;80.17
54924;BME280;40825;52.270;20.984;2023-01-26T09:53:01;101201.00;;;0.58;80.61
54924;BME280;40825;52.270;20.984;2023-01-26T09:55:28;101198.67;;;0.56;80.49
54924;BME280;40825;52.270;20.984;2023-01-26T09:57:59;101192.14;;;0.57;80.54
54924;BME280;40825;52.270;20.984;2023-01-26T10:00:31;101186.66;;;0.57;80.33
54924;BME280;40825;52.270;20.984;2023-01-26T10:03:39;101184.61;;;0.59;80.64
54924;BME280;40825;52.270;20.984;2023-01-26T10:09:16;101179.39;;;0.61;80.50
54924;BME280;40825;52.270;20.984;2023-01-26T10:11:57;101173.42;;;0.64;80.22
54924;BME280;40825;52.270;20.984;2023-01-26T10:14:35;101171.48;;;0.66;79.84
54924;BME280;40825;52.270;20.984;2023-01-26T10:17:05;101171.27;;;0.70;79.44
54924;BME280;40825;52.270;20.984;2023-01-26T10:19:35;101172.36;;;0.74;80.45
54924;BME280;40825;52.270;20.984;2023-01-26T10:22:14;101168.11;;;0.77;79.24
54924;BME280;40825;52.270;20.984;2023-01-26T10:24:46;101161.30;;;0.82;80.03
54924;BME280;40825;52.270;20.984;2023-01-26T10:27:13;101158.93;;;0.86;79.72
54924;BME280;40825;52.270;20.984;2023-01-26T10:29:39;101154.79;;;0.85;79.27
54924;BME280;40825;52.270;20.984;2023-01-26T10:32:04;101152.48;;;0.80;78.78
54924;BME280;40825;52.270;20.984;2023-01-26T10:34:30;101149.30;;;0.78;79.40
54924;BME280;40825;52.270;20.984;2023-01-26T10:39:57;101145.70;;;0.77;78.79
54924;BME280;40825;52.270;20.984;2023-01-26T10:42:26;101144.57;;;0.76;78.48
54924;BME280;40825;52.270;20.984;2023-01-26T10:44:53;101142.02;;;0.77;79.25
54924;BME280;40825;52.270;20.984;2023-01-26T10:47:19;101142.02;;;0.79;79.25
54924;BME280;40825;52.270;20.984;2023-01-26T10:49:47;101138.90;;;0.82;79.07
54924;BME280;40825;52.270;20.984;2023-01-26T10:54:42;101124.38;;;0.86;79.04
54924;BME280;40825;52.270;20.984;2023-01-26T10:57:16;101116.60;;;0.82;78.27
54924;BME280;40825;52.270;20.984;2023-01-26T10:59:47;101115.77;;;0.78;78.53
54924;BME280;40825;52.270;20.984;2023-01-26T11:04:40;101115.09;;;0.74;78.10
54924;BME280;40825;52.270;20.984;2023-01-26T11:07:25;101108.63;;;0.68;77.65
54924;BME280;40825;52.270;20.984;2023-01-26T11:09:52;101103.70;;;0.71;78.18
54924;BME280;40825;52.270;20.984;2023-01-26T11:12:19;101101.31;;;0.75;78.28
54924;BME280;40825;52.270;20.984;2023-01-26T11:15:04;101102.81;;;0.74;78.16
54924;BME280;40825;52.270;20.984;2023-01-26T11:17:45;101101.42;;;0.74;78.05
54924;BME280;40825;52.270;20.984;2023-01-26T11:36:54;101075.95;;;0.77;77.49
54924;BME280;40825;52.270;20.984;2023-01-26T11:42:43;101075.57;;;0.73;77.16
54924;BME280;40825;52.270;20.984;2023-01-26T11:48:05;101072.63;;;0.79;77.87
54924;BME280;40825;52.270;20.984;2023-01-26T11:50:59;101065.66;;;0.76;77.26
54924;BME280;40825;52.270;20.984;2023-01-26T11:53:58;101064.05;;;0.72;77.50
54924;BME280;40825;52.270;20.984;2023-01-26T11:56:41;101063.83;;;0.70;77.96
54924;BME280;40825;52.270;20.984;2023-01-26T11:59:13;101060.08;;;0.74;78.36
54924;BME280;40825;52.270;20.984;2023-01-26T12:01:49;101055.73;;;0.78;78.49
54924;BME280;40825;52.270;20.984;2023-01-26T12:04:19;101053.96;;;0.81;78.03
54924;BME280;40825;52.270;20.984;2023-01-26T12:06:57;101055.70;;;0.79;78.02
54924;BME280;40825;52.270;20.984;2023-01-26T12:09:31;101057.99;;;0.78;78.02
54924;BME280;40825;52.270;20.984;2023-01-26T12:17:50;101050.36;;;0.67;77.72
54924;BME280;40825;52.270;20.984;2023-01-26T12:23:30;101055.23;;;0.70;78.33
54924;BME280;40825;52.270;20.984;2023-01-26T12:26:02;101048.96;;;0.75;78.44
54924;BME280;40825;52.270;20.984;2023-01-26T12:28:46;101047.44;;;0.74;77.80
54924;BME280;40825;52.270;20.984;2023-01-26T12:33:38;101046.86;;;0.67;77.84
54924;BME280;40825;52.270;20.984;2023-01-26T12:41:34;101045.27;;;0.65;77.94
54924;BME280;40825;52.270;20.984;2023-01-26T12:46:40;101039.40;;;0.62;77.93
54924;BME280;40825;52.270;20.984;2023-01-26T12:49:16;101037.44;;;0.62;78.26
54924;BME280;40825;52.270;20.984;2023-01-26T12:51:59;101039.70;;;0.62;78.03
54924;BME280;40825;52.270;20.984;2023-01-26T12:54:40;101042.73;;;0.59;77.86
54924;BME280;40825;52.270;20.984;2023-01-26T12:57:17;101041.21;;;0.61;78.77
54924;BME280;40825;52.270;20.984;2023-01-26T12:59:44;101044.95;;;0.65;78.44
54924;BME280;40825;52.270;20.984;2023-01-26T13:04:39;101043.55;;;0.60;78.03
54924;BME280;40825;52.270;20.984;2023-01-26T13:07:38;101038.30;;;0.57;78.08
54924;BME280;40825;52.270;20.984;2023-01-26T13:15:21;101034.11;;;0.64;78.91
54924;BME280;40825;52.270;20.984;2023-01-26T13:17:54;101028.87;;;0.69;78.63
54924;BME280;40825;52.270;20.984;2023-01-26T13:23:42;101024.28;;;0.65;77.96
54924;BME280;40825;52.270;20.984;2023-01-26T13:26:40;101023.16;;;0.63;77.97
54924;BME280;40825;52.270;20.984;2023-01-26T13:34:38;101022.36;;;0.64;78.45
54924;BME280;40825;52.270;20.984;2023-01-26T13:37:10;101019.21;;;0.64;78.04
54924;BME280;40825;52.270;20.984;2023-01-26T13:39:41;101019.35;;;0.65;78.15
54924;BME280;40825;52.270;20.984;2023-01-26T13:42:36;101019.95;;;0.64;78.28
54924;BME280;40825;52.270;20.984;2023-01-26T13:45:18;101023.90;;;0.65;78.60
54924;BME280;40825;52.270;20.984;2023-01-26T13:47:48;101023.27;;;0.64;78.03
54924;BME280;40825;52.270;20.984;2023-01-26T13:52:49;101014.79;;;0.63;78.60
54924;BME280;40825;52.270;20.984;2023-01-26T13:55:22;101014.79;;;0.63;78.56
54924;BME280;40825;52.270;20.984;2023-01-26T13:57:48;101018.20;;;0.62;78.15
54924;BME280;40825;52.270;20.984;2023-01-26T14:00:14;101016.36;;;0.63;78.80
54924;BME280;40825;52.270;20.984;2023-01-26T14:02:47;101021.36;;;0.64;78.73
54924;BME280;40825;52.270;20.984;2023-01-26T14:05:20;101018.53;;;0.62;78.70
54924;BME280;40825;52.270;20.984;2023-01-26T14:07:47;101012.14;;;0.61;78.61
54924;BME280;40825;52.270;20.984;2023-01-26T14:10:17;101009.20;;;0.60;78.84
54924;BME280;40825;52.270;20.984;2023-01-26T14:12:48;101008.69;;;0.60;79.02
54924;BME280;40825;52.270;20.984;2023-01-26T14:15:28;101012.63;;;0.61;79.00
54924;BME280;40825;52.270;20.984;2023-01-26T14:18:00;101013.14;;;0.59;78.74
54924;BME280;40825;52.270;20.984;2023-01-26T14:20:34;101014.02;;;0.59;78.92
54924;BME280;40825;52.270;20.984;2023-01-26T14:23:21;101009.31;;;0.56;78.87
54924;BME280;40825;52.270;20.984;2023-01-26T14:25:55;101013.14;;;0.54;78.99